Terminal Aerodrome Forecast
Issued by NWS

Current Version | Previous Version | Graphics & Text | Print | Product List | Glossary On
Versions: 1 2 3 4 5 6 7 8 9 10 11 12 13 14 15 16 17 18 19 20 21 22 23 24 25 26 27 28 29 30
000
FTUS41 KILN 202300
TAFLCK
TAF
KLCK 202338Z 2100/2124 25004KT P6SM FEW050 SCT250
     FM211100 22004KT P6SM FEW025 BKN100
     FM211400 23006KT P6SM -SHRA VCTS BKN040CB
      TEMPO 2115/2117 5SM -TSRA
     FM211900 24008KT P6SM VCSH SCT035 BKN150
     FM212300 23006KT P6SM FEW040 SCT200=

USA.gov is the U.S. government's official web portal to all federal, state and local government web resources and services.